sensor_id;sensor_type;location;lat;lon;timestamp;P1;durP1;ratioP1;P2;durP2;ratioP2
22673;SDS011;11504;43.334;21.918;2023-04-03T00:01:28;35.0;;;33.0;;
22673;SDS011;11504;43.334;21.918;2023-04-03T00:06:05;35.0;;;33.0;;
22673;SDS011;11504;43.334;21.918;2023-04-03T00:10:43;32.0;;;30.0;;
22673;SDS011;11504;43.334;21.918;2023-04-03T00:15:20;32.0;;;30.0;;
22673;SDS011;11504;43.334;21.918;2023-04-03T00:19:56;28.0;;;27.0;;
22673;SDS011;11504;43.334;21.918;2023-04-03T00:24:33;28.0;;;27.0;;
22673;SDS011;11504;43.334;21.918;2023-04-03T00:29:09;29.0;;;28.0;;
22673;SDS011;11504;43.334;21.918;2023-04-03T00:33:46;29.0;;;28.0;;
22673;SDS011;11504;43.334;21.918;2023-04-03T00:38:23;30.0;;;28.0;;
22673;SDS011;11504;43.334;21.918;2023-04-03T00:43:12;30.0;;;28.0;;
22673;SDS011;11504;43.334;21.918;2023-04-03T00:47:56;30.0;;;28.0;;
22673;SDS011;11504;43.334;21.918;2023-04-03T00:52:41;30.0;;;28.0;;
22673;SDS011;11504;43.334;21.918;2023-04-03T00:57:18;29.0;;;27.0;;
22673;SDS011;11504;43.334;21.918;2023-04-03T01:01:58;29.0;;;27.0;;
22673;SDS011;11504;43.334;21.918;2023-04-03T01:06:37;29.0;;;27.0;;
22673;SDS011;11504;43.334;21.918;2023-04-03T01:11:13;31.0;;;30.0;;
22673;SDS011;11504;43.334;21.918;2023-04-03T01:15:50;31.0;;;30.0;;
22673;SDS011;11504;43.334;21.918;2023-04-03T01:22:18;33.0;;;32.0;;
22673;SDS011;11504;43.334;21.918;2023-04-03T01:27:01;33.0;;;32.0;;
22673;SDS011;11504;43.334;21.918;2023-04-03T01:31:48;28.0;;;26.0;;
22673;SDS011;11504;43.334;21.918;2023-04-03T01:36:32;28.0;;;26.0;;
22673;SDS011;11504;43.334;21.918;2023-04-03T01:41:09;22.0;;;21.0;;
22673;SDS011;11504;43.334;21.918;2023-04-03T01:45:46;22.0;;;21.0;;
22673;SDS011;11504;43.334;21.918;2023-04-03T01:50:23;22.0;;;20.0;;
22673;SDS011;11504;43.334;21.918;2023-04-03T01:55:00;22.0;;;20.0;;
22673;SDS011;11504;43.334;21.918;2023-04-03T01:59:37;21.0;;;20.0;;
22673;SDS011;11504;43.334;21.918;2023-04-03T02:04:14;21.0;;;20.0;;
22673;SDS011;11504;43.334;21.918;2023-04-03T02:08:51;22.0;;;21.0;;
22673;SDS011;11504;43.334;21.918;2023-04-03T02:13:28;22.0;;;21.0;;
22673;SDS011;11504;43.334;21.918;2023-04-03T02:18:05;23.0;;;22.0;;
22673;SDS011;11504;43.334;21.918;2023-04-03T02:22:45;23.0;;;22.0;;
22673;SDS011;11504;43.334;21.918;2023-04-03T02:27:23;24.0;;;22.0;;
22673;SDS011;11504;43.334;21.918;2023-04-03T02:32:00;24.0;;;22.0;;
22673;SDS011;11504;43.334;21.918;2023-04-03T02:36:37;24.0;;;22.0;;
22673;SDS011;11504;43.334;21.918;2023-04-03T02:41:14;25.0;;;23.0;;
22673;SDS011;11504;43.334;21.918;2023-04-03T02:45:50;25.0;;;23.0;;
22673;SDS011;11504;43.334;21.918;2023-04-03T02:50:26;25.0;;;24.0;;
22673;SDS011;11504;43.334;21.918;2023-04-03T02:55:04;25.0;;;24.0;;
22673;SDS011;11504;43.334;21.918;2023-04-03T02:59:43;25.0;;;24.0;;
22673;SDS011;11504;43.334;21.918;2023-04-03T03:04:19;25.0;;;24.0;;
22673;SDS011;11504;43.334;21.918;2023-04-03T03:08:57;22.0;;;21.0;;
22673;SDS011;11504;43.334;21.918;2023-04-03T03:13:34;22.0;;;21.0;;
22673;SDS011;11504;43.334;21.918;2023-04-03T03:18:13;19.0;;;18.0;;
22673;SDS011;11504;43.334;21.918;2023-04-03T03:22:50;19.0;;;18.0;;
22673;SDS011;11504;43.334;21.918;2023-04-03T03:27:27;18.0;;;17.0;;
22673;SDS011;11504;43.334;21.918;2023-04-03T03:32:04;18.0;;;17.0;;
22673;SDS011;11504;43.334;21.918;2023-04-03T03:36:41;18.0;;;17.0;;
22673;SDS011;11504;43.334;21.918;2023-04-03T03:41:18;16.0;;;16.0;;
22673;SDS011;11504;43.334;21.918;2023-04-03T03:45:55;16.0;;;16.0;;
22673;SDS011;11504;43.334;21.918;2023-04-03T03:50:31;16.0;;;16.0;;
22673;SDS011;11504;43.334;21.918;2023-04-03T03:55:08;16.0;;;16.0;;
22673;SDS011;11504;43.334;21.918;2023-04-03T03:59:45;17.0;;;17.0;;
22673;SDS011;11504;43.334;21.918;2023-04-03T04:04:21;17.0;;;17.0;;
22673;SDS011;11504;43.334;21.918;2023-04-03T04:08:58;16.0;;;16.0;;
22673;SDS011;11504;43.334;21.918;2023-04-03T04:13:34;16.0;;;16.0;;
22673;SDS011;11504;43.334;21.918;2023-04-03T04:18:11;16.0;;;15.0;;
22673;SDS011;11504;43.334;21.918;2023-04-03T04:22:48;16.0;;;15.0;;
22673;SDS011;11504;43.334;21.918;2023-04-03T04:27:25;16.0;;;16.0;;
22673;SDS011;11504;43.334;21.918;2023-04-03T04:32:02;16.0;;;16.0;;
22673;SDS011;11504;43.334;21.918;2023-04-03T04:36:41;16.0;;;16.0;;
22673;SDS011;11504;43.334;21.918;2023-04-03T04:41:19;17.0;;;16.0;;
22673;SDS011;11504;43.334;21.918;2023-04-03T04:46:03;17.0;;;16.0;;
22673;SDS011;11504;43.334;21.918;2023-04-03T04:50:46;17.0;;;16.0;;
22673;SDS011;11504;43.334;21.918;2023-04-03T04:55:23;17.0;;;16.0;;
22673;SDS011;11504;43.334;21.918;2023-04-03T05:00:00;17.0;;;16.0;;
22673;SDS011;11504;43.334;21.918;2023-04-03T05:04:36;17.0;;;16.0;;
22673;SDS011;11504;43.334;21.918;2023-04-03T05:09:13;20.0;;;18.0;;
22673;SDS011;11504;43.334;21.918;2023-04-03T05:13:50;20.0;;;18.0;;
22673;SDS011;11504;43.334;21.918;2023-04-03T05:18:26;22.0;;;21.0;;
22673;SDS011;11504;43.334;21.918;2023-04-03T05:23:03;22.0;;;21.0;;
22673;SDS011;11504;43.334;21.918;2023-04-03T05:27:40;20.0;;;20.0;;
22673;SDS011;11504;43.334;21.918;2023-04-03T05:32:16;20.0;;;20.0;;
22673;SDS011;11504;43.334;21.918;2023-04-03T05:36:52;20.0;;;20.0;;
22673;SDS011;11504;43.334;21.918;2023-04-03T05:41:29;19.0;;;18.0;;
22673;SDS011;11504;43.334;21.918;2023-04-03T05:46:10;19.0;;;18.0;;
22673;SDS011;11504;43.334;21.918;2023-04-03T05:50:55;22.0;;;20.0;;
22673;SDS011;11504;43.334;21.918;2023-04-03T05:55:33;22.0;;;20.0;;
22673;SDS011;11504;43.334;21.918;2023-04-03T06:00:14;24.0;;;23.0;;
22673;SDS011;11504;43.334;21.918;2023-04-03T06:04:55;24.0;;;23.0;;
22673;SDS011;11504;43.334;21.918;2023-04-03T06:09:31;23.0;;;22.0;;
22673;SDS011;11504;43.334;21.918;2023-04-03T06:14:10;23.0;;;22.0;;
22673;SDS011;11504;43.334;21.918;2023-04-03T06:18:48;22.0;;;21.0;;
22673;SDS011;11504;43.334;21.918;2023-04-03T06:23:25;22.0;;;21.0;;
22673;SDS011;11504;43.334;21.918;2023-04-03T06:28:02;26.0;;;25.0;;
22673;SDS011;11504;43.334;21.918;2023-04-03T06:32:38;26.0;;;25.0;;
22673;SDS011;11504;43.334;21.918;2023-04-03T06:37:16;26.0;;;25.0;;
22673;SDS011;11504;43.334;21.918;2023-04-03T06:41:56;30.0;;;29.0;;
22673;SDS011;11504;43.334;21.918;2023-04-03T06:46:32;30.0;;;29.0;;
22673;SDS011;11504;43.334;21.918;2023-04-03T06:51:17;30.0;;;29.0;;
22673;SDS011;11504;43.334;21.918;2023-04-03T06:55:57;30.0;;;29.0;;
22673;SDS011;11504;43.334;21.918;2023-04-03T07:00:34;30.0;;;29.0;;
22673;SDS011;11504;43.334;21.918;2023-04-03T07:05:11;30.0;;;29.0;;
22673;SDS011;11504;43.334;21.918;2023-04-03T07:09:49;28.0;;;26.0;;
22673;SDS011;11504;43.334;21.918;2023-04-03T07:14:26;28.0;;;26.0;;
22673;SDS011;11504;43.334;21.918;2023-04-03T07:19:03;25.0;;;24.0;;
22673;SDS011;11504;43.334;21.918;2023-04-03T07:23:40;25.0;;;24.0;;
22673;SDS011;11504;43.334;21.918;2023-04-03T07:28:19;22.0;;;21.0;;
22673;SDS011;11504;43.334;21.918;2023-04-03T07:33:00;22.0;;;21.0;;
22673;SDS011;11504;43.334;21.918;2023-04-03T07:37:36;19.0;;;18.0;;
22673;SDS011;11504;43.334;21.918;2023-04-03T07:42:13;19.0;;;18.0;;
22673;SDS011;11504;43.334;21.918;2023-04-03T07:46:50;19.0;;;18.0;;
22673;SDS011;11504;43.334;21.918;2023-04-03T07:51:27;19.0;;;18.0;;
22673;SDS011;11504;43.334;21.918;2023-04-03T07:56:05;19.0;;;18.0;;
22673;SDS011;11504;43.334;21.918;2023-04-03T08:00:44;19.0;;;18.0;;
22673;SDS011;11504;43.334;21.918;2023-04-03T08:05:24;19.0;;;18.0;;
22673;SDS011;11504;43.334;21.918;2023-04-03T08:10:00;24.0;;;22.0;;
22673;SDS011;11504;43.334;21.918;2023-04-03T08:14:37;24.0;;;22.0;;
22673;SDS011;11504;43.334;21.918;2023-04-03T08:19:15;28.0;;;26.0;;
22673;SDS011;11504;43.334;21.918;2023-04-03T08:23:53;28.0;;;26.0;;
22673;SDS011;11504;43.334;21.918;2023-04-03T08:28:30;28.0;;;26.0;;
22673;SDS011;11504;43.334;21.918;2023-04-03T08:33:08;28.0;;;26.0;;
22673;SDS011;11504;43.334;21.918;2023-04-03T08:37:46;28.0;;;27.0;;
22673;SDS011;11504;43.334;21.918;2023-04-03T08:42:41;28.0;;;27.0;;
22673;SDS011;11504;43.334;21.918;2023-04-03T08:48:27;26.0;;;24.0;;
22673;SDS011;11504;43.334;21.918;2023-04-03T08:53:23;26.0;;;24.0;;
22673;SDS011;11504;43.334;21.918;2023-04-03T08:58:18;25.0;;;22.0;;
22673;SDS011;11504;43.334;21.918;2023-04-03T09:03:00;25.0;;;22.0;;
22673;SDS011;11504;43.334;21.918;2023-04-03T09:07:42;24.0;;;22.0;;
22673;SDS011;11504;43.334;21.918;2023-04-03T09:12:33;24.0;;;22.0;;
22673;SDS011;11504;43.334;21.918;2023-04-03T09:17:27;24.0;;;22.0;;
22673;SDS011;11504;43.334;21.918;2023-04-03T09:22:24;22.0;;;21.0;;
22673;SDS011;11504;43.334;21.918;2023-04-03T09:27:06;22.0;;;21.0;;
22673;SDS011;11504;43.334;21.918;2023-04-03T09:31:49;23.0;;;22.0;;
22673;SDS011;11504;43.334;21.918;2023-04-03T09:36:41;23.0;;;22.0;;
22673;SDS011;11504;43.334;21.918;2023-04-03T09:41:21;24.0;;;22.0;;
22673;SDS011;11504;43.334;21.918;2023-04-03T09:46:23;24.0;;;22.0;;
22673;SDS011;11504;43.334;21.918;2023-04-03T09:51:15;26.0;;;24.0;;
22673;SDS011;11504;43.334;21.918;2023-04-03T09:55:51;26.0;;;24.0;;
22673;SDS011;11504;43.334;21.918;2023-04-03T10:00:33;29.0;;;25.0;;
22673;SDS011;11504;43.334;21.918;2023-04-03T10:05:36;29.0;;;25.0;;
22673;SDS011;11504;43.334;21.918;2023-04-03T10:10:21;26.0;;;23.0;;
22673;SDS011;11504;43.334;21.918;2023-04-03T10:15:00;26.0;;;23.0;;
22673;SDS011;11504;43.334;21.918;2023-04-03T10:19:53;24.0;;;21.0;;
22673;SDS011;11504;43.334;21.918;2023-04-03T10:25:15;24.0;;;21.0;;
22673;SDS011;11504;43.334;21.918;2023-04-03T10:30:32;26.0;;;22.0;;
22673;SDS011;11504;43.334;21.918;2023-04-03T10:35:44;26.0;;;22.0;;
22673;SDS011;11504;43.334;21.918;2023-04-03T10:41:02;27.0;;;23.0;;
22673;SDS011;11504;43.334;21.918;2023-04-03T10:46:03;27.0;;;23.0;;
22673;SDS011;11504;43.334;21.918;2023-04-03T10:50:58;28.0;;;24.0;;
22673;SDS011;11504;43.334;21.918;2023-04-03T10:56:03;28.0;;;24.0;;
22673;SDS011;11504;43.334;21.918;2023-04-03T11:01:05;28.0;;;25.0;;
22673;SDS011;11504;43.334;21.918;2023-04-03T11:06:02;28.0;;;25.0;;
22673;SDS011;11504;43.334;21.918;2023-04-03T11:11:00;28.0;;;25.0;;
22673;SDS011;11504;43.334;21.918;2023-04-03T11:15:58;28.0;;;25.0;;
22673;SDS011;11504;43.334;21.918;2023-04-03T11:20:44;29.0;;;25.0;;
22673;SDS011;11504;43.334;21.918;2023-04-03T11:26:01;29.0;;;25.0;;
22673;SDS011;11504;43.334;21.918;2023-04-03T11:31:13;30.0;;;24.0;;
22673;SDS011;11504;43.334;21.918;2023-04-03T11:37:06;30.0;;;24.0;;
22673;SDS011;11504;43.334;21.918;2023-04-03T11:42:20;31.0;;;24.0;;
22673;SDS011;11504;43.334;21.918;2023-04-03T11:47:46;28.0;;;22.0;;
22673;SDS011;11504;43.334;21.918;2023-04-03T11:53:10;28.0;;;22.0;;
22673;SDS011;11504;43.334;21.918;2023-04-03T11:58:15;25.0;;;21.0;;
22673;SDS011;11504;43.334;21.918;2023-04-03T12:02:53;25.0;;;21.0;;
22673;SDS011;11504;43.334;21.918;2023-04-03T12:07:29;25.0;;;21.0;;
22673;SDS011;11504;43.334;21.918;2023-04-03T12:12:30;25.0;;;22.0;;
22673;SDS011;11504;43.334;21.918;2023-04-03T12:17:22;25.0;;;22.0;;
22673;SDS011;11504;43.334;21.918;2023-04-03T12:22:12;25.0;;;22.0;;
22673;SDS011;11504;43.334;21.918;2023-04-03T12:27:21;25.0;;;22.0;;
22673;SDS011;11504;43.334;21.918;2023-04-03T12:32:26;24.0;;;22.0;;
22673;SDS011;11504;43.334;21.918;2023-04-03T12:38:20;23.0;;;21.0;;
22673;SDS011;11504;43.334;21.918;2023-04-03T12:44:36;23.0;;;21.0;;
22673;SDS011;11504;43.334;21.918;2023-04-03T12:49:45;24.0;;;22.0;;
22673;SDS011;11504;43.334;21.918;2023-04-03T12:54:35;24.0;;;22.0;;
22673;SDS011;11504;43.334;21.918;2023-04-03T12:59:19;25.0;;;22.0;;
22673;SDS011;11504;43.334;21.918;2023-04-03T13:04:02;25.0;;;22.0;;
22673;SDS011;11504;43.334;21.918;2023-04-03T13:08:49;25.0;;;22.0;;
22673;SDS011;11504;43.334;21.918;2023-04-03T13:13:29;25.0;;;22.0;;
22673;SDS011;11504;43.334;21.918;2023-04-03T13:18:05;25.0;;;21.0;;
22673;SDS011;11504;43.334;21.918;2023-04-03T13:23:01;25.0;;;21.0;;
22673;SDS011;11504;43.334;21.918;2023-04-03T13:27:44;25.0;;;21.0;;
22673;SDS011;11504;43.334;21.918;2023-04-03T13:32:24;27.0;;;22.0;;
22673;SDS011;11504;43.334;21.918;2023-04-03T13:37:22;27.0;;;22.0;;
22673;SDS011;11504;43.334;21.918;2023-04-03T13:42:22;29.0;;;24.0;;
22673;SDS011;11504;43.334;21.918;2023-04-03T13:47:19;29.0;;;24.0;;
22673;SDS011;11504;43.334;21.918;2023-04-03T13:52:02;30.0;;;26.0;;
22673;SDS011;11504;43.334;21.918;2023-04-03T13:57:16;30.0;;;26.0;;
22673;SDS011;11504;43.334;21.918;2023-04-03T14:02:10;30.0;;;27.0;;
22673;SDS011;11504;43.334;21.918;2023-04-03T14:07:05;30.0;;;27.0;;
22673;SDS011;11504;43.334;21.918;2023-04-03T14:11:43;30.0;;;26.0;;
22673;SDS011;11504;43.334;21.918;2023-04-03T14:16:29;30.0;;;26.0;;
22673;SDS011;11504;43.334;21.918;2023-04-03T14:21:21;30.0;;;26.0;;
22673;SDS011;11504;43.334;21.918;2023-04-03T14:25:59;30.0;;;26.0;;
22673;SDS011;11504;43.334;21.918;2023-04-03T14:30:35;30.0;;;26.0;;
22673;SDS011;11504;43.334;21.918;2023-04-03T14:35:12;30.0;;;26.0;;
22673;SDS011;11504;43.334;21.918;2023-04-03T14:39:51;31.0;;;26.0;;
22673;SDS011;11504;43.334;21.918;2023-04-03T14:44:29;31.0;;;26.0;;
22673;SDS011;11504;43.334;21.918;2023-04-03T14:49:14;30.0;;;26.0;;
22673;SDS011;11504;43.334;21.918;2023-04-03T14:53:56;30.0;;;26.0;;
22673;SDS011;11504;43.334;21.918;2023-04-03T14:58:33;29.0;;;27.0;;
22673;SDS011;11504;43.334;21.918;2023-04-03T15:03:14;29.0;;;27.0;;
22673;SDS011;11504;43.334;21.918;2023-04-03T15:07:58;29.0;;;26.0;;
22673;SDS011;11504;43.334;21.918;2023-04-03T15:12:35;29.0;;;26.0;;
22673;SDS011;11504;43.334;21.918;2023-04-03T15:17:17;29.0;;;26.0;;
22673;SDS011;11504;43.334;21.918;2023-04-03T15:21:59;29.0;;;26.0;;
22673;SDS011;11504;43.334;21.918;2023-04-03T15:26:36;29.0;;;26.0;;
22673;SDS011;11504;43.334;21.918;2023-04-03T15:31:14;28.0;;;26.0;;
22673;SDS011;11504;43.334;21.918;2023-04-03T15:35:51;28.0;;;26.0;;
22673;SDS011;11504;43.334;21.918;2023-04-03T15:40:28;28.0;;;27.0;;
22673;SDS011;11504;43.334;21.918;2023-04-03T15:45:06;28.0;;;27.0;;
22673;SDS011;11504;43.334;21.918;2023-04-03T15:49:46;27.0;;;24.0;;
22673;SDS011;11504;43.334;21.918;2023-04-03T15:54:22;27.0;;;24.0;;
22673;SDS011;11504;43.334;21.918;2023-04-03T15:58:59;26.0;;;22.0;;
22673;SDS011;11504;43.334;21.918;2023-04-03T16:03:35;26.0;;;22.0;;
22673;SDS011;11504;43.334;21.918;2023-04-03T16:08:12;27.0;;;24.0;;
22673;SDS011;11504;43.334;21.918;2023-04-03T16:12:50;27.0;;;24.0;;
22673;SDS011;11504;43.334;21.918;2023-04-03T16:17:27;27.0;;;24.0;;
22673;SDS011;11504;43.334;21.918;2023-04-03T16:22:04;28.0;;;25.0;;
22673;SDS011;11504;43.334;21.918;2023-04-03T16:26:41;28.0;;;25.0;;
22673;SDS011;11504;43.334;21.918;2023-04-03T16:31:18;28.0;;;25.0;;
22673;SDS011;11504;43.334;21.918;2023-04-03T16:36:03;28.0;;;25.0;;
22673;SDS011;11504;43.334;21.918;2023-04-03T16:40:42;29.0;;;25.0;;
22673;SDS011;11504;43.334;21.918;2023-04-03T16:45:19;29.0;;;25.0;;
22673;SDS011;11504;43.334;21.918;2023-04-03T16:49:57;26.0;;;24.0;;
22673;SDS011;11504;43.334;21.918;2023-04-03T16:54:34;26.0;;;24.0;;
22673;SDS011;11504;43.334;21.918;2023-04-03T16:59:11;24.0;;;23.0;;
22673;SDS011;11504;43.334;21.918;2023-04-03T17:03:48;24.0;;;23.0;;
22673;SDS011;11504;43.334;21.918;2023-04-03T17:08:25;24.0;;;22.0;;
22673;SDS011;11504;43.334;21.918;2023-04-03T17:13:01;24.0;;;22.0;;
22673;SDS011;11504;43.334;21.918;2023-04-03T17:17:37;24.0;;;22.0;;
22673;SDS011;11504;43.334;21.918;2023-04-03T17:22:13;23.0;;;22.0;;
22673;SDS011;11504;43.334;21.918;2023-04-03T17:26:49;23.0;;;22.0;;
22673;SDS011;11504;43.334;21.918;2023-04-03T17:31:26;24.0;;;22.0;;
22673;SDS011;11504;43.334;21.918;2023-04-03T17:36:03;24.0;;;22.0;;
22673;SDS011;11504;43.334;21.918;2023-04-03T17:40:43;24.0;;;21.0;;
22673;SDS011;11504;43.334;21.918;2023-04-03T17:45:20;24.0;;;21.0;;
22673;SDS011;11504;43.334;21.918;2023-04-03T17:49:57;24.0;;;21.0;;
22673;SDS011;11504;43.334;21.918;2023-04-03T17:54:33;24.0;;;21.0;;
22673;SDS011;11504;43.334;21.918;2023-04-03T17:59:10;23.0;;;21.0;;
22673;SDS011;11504;43.334;21.918;2023-04-03T18:03:51;23.0;;;21.0;;
22673;SDS011;11504;43.334;21.918;2023-04-03T18:08:40;25.0;;;23.0;;
22673;SDS011;11504;43.334;21.918;2023-04-03T18:13:31;25.0;;;23.0;;
22673;SDS011;11504;43.334;21.918;2023-04-03T18:18:09;27.0;;;25.0;;
22673;SDS011;11504;43.334;21.918;2023-04-03T18:22:46;27.0;;;25.0;;
22673;SDS011;11504;43.334;21.918;2023-04-03T18:27:26;27.0;;;25.0;;
22673;SDS011;11504;43.334;21.918;2023-04-03T18:32:08;26.0;;;24.0;;
22673;SDS011;11504;43.334;21.918;2023-04-03T18:36:54;26.0;;;24.0;;
22673;SDS011;11504;43.334;21.918;2023-04-03T18:41:34;26.0;;;24.0;;
22673;SDS011;11504;43.334;21.918;2023-04-03T18:46:14;26.0;;;24.0;;
22673;SDS011;11504;43.334;21.918;2023-04-03T18:50:51;24.0;;;22.0;;
22673;SDS011;11504;43.334;21.918;2023-04-03T18:55:28;24.0;;;22.0;;
22673;SDS011;11504;43.334;21.918;2023-04-03T19:00:07;21.0;;;20.0;;
22673;SDS011;11504;43.334;21.918;2023-04-03T19:04:47;21.0;;;20.0;;
22673;SDS011;11504;43.334;21.918;2023-04-03T19:09:26;22.0;;;20.0;;
22673;SDS011;11504;43.334;21.918;2023-04-03T19:14:04;22.0;;;20.0;;
22673;SDS011;11504;43.334;21.918;2023-04-03T19:18:42;22.0;;;21.0;;
22673;SDS011;11504;43.334;21.918;2023-04-03T19:23:18;22.0;;;21.0;;
22673;SDS011;11504;43.334;21.918;2023-04-03T19:27:55;22.0;;;21.0;;
22673;SDS011;11504;43.334;21.918;2023-04-03T19:32:31;22.0;;;20.0;;
22673;SDS011;11504;43.334;21.918;2023-04-03T19:37:07;22.0;;;20.0;;
22673;SDS011;11504;43.334;21.918;2023-04-03T19:41:44;21.0;;;20.0;;
22673;SDS011;11504;43.334;21.918;2023-04-03T19:46:22;21.0;;;20.0;;
22673;SDS011;11504;43.334;21.918;2023-04-03T19:51:04;18.0;;;18.0;;
22673;SDS011;11504;43.334;21.918;2023-04-03T19:55:40;18.0;;;18.0;;
22673;SDS011;11504;43.334;21.918;2023-04-03T20:00:17;16.0;;;15.0;;
22673;SDS011;11504;43.334;21.918;2023-04-03T20:04:55;16.0;;;15.0;;
22673;SDS011;11504;43.334;21.918;2023-04-03T20:09:31;16.0;;;14.0;;
22673;SDS011;11504;43.334;21.918;2023-04-03T20:14:07;16.0;;;14.0;;
22673;SDS011;11504;43.334;21.918;2023-04-03T20:18:44;15.0;;;14.0;;
22673;SDS011;11504;43.334;21.918;2023-04-03T20:23:20;15.0;;;14.0;;
22673;SDS011;11504;43.334;21.918;2023-04-03T20:27:59;15.0;;;14.0;;
22673;SDS011;11504;43.334;21.918;2023-04-03T20:32:35;14.0;;;14.0;;
22673;SDS011;11504;43.334;21.918;2023-04-03T20:37:12;14.0;;;14.0;;
22673;SDS011;11504;43.334;21.918;2023-04-03T20:41:49;14.0;;;13.0;;
22673;SDS011;11504;43.334;21.918;2023-04-03T20:46:26;14.0;;;13.0;;
22673;SDS011;11504;43.334;21.918;2023-04-03T20:51:13;15.0;;;14.0;;
22673;SDS011;11504;43.334;21.918;2023-04-03T20:55:56;15.0;;;14.0;;
22673;SDS011;11504;43.334;21.918;2023-04-03T21:00:36;16.0;;;15.0;;
22673;SDS011;11504;43.334;21.918;2023-04-03T21:05:14;16.0;;;15.0;;
22673;SDS011;11504;43.334;21.918;2023-04-03T21:21:02;16.0;;;14.0;;
22673;SDS011;11504;43.334;21.918;2023-04-03T21:25:40;16.0;;;14.0;;
22673;SDS011;11504;43.334;21.918;2023-04-03T21:30:18;15.0;;;14.0;;
22673;SDS011;11504;43.334;21.918;2023-04-03T21:34:54;15.0;;;14.0;;
22673;SDS011;11504;43.334;21.918;2023-04-03T21:39:32;14.0;;;13.0;;
22673;SDS011;11504;43.334;21.918;2023-04-03T21:44:10;14.0;;;13.0;;
22673;SDS011;11504;43.334;21.918;2023-04-03T21:48:47;12.0;;;12.0;;
22673;SDS011;11504;43.334;21.918;2023-04-03T21:53:23;12.0;;;12.0;;
22673;SDS011;11504;43.334;21.918;2023-04-03T21:58:00;12.0;;;12.0;;
22673;SDS011;11504;43.334;21.918;2023-04-03T22:02:38;11.0;;;10.0;;
22673;SDS011;11504;43.334;21.918;2023-04-03T22:07:15;11.0;;;10.0;;
22673;SDS011;11504;43.334;21.918;2023-04-03T22:11:52;11.0;;;10.0;;
22673;SDS011;11504;43.334;21.918;2023-04-03T22:16:29;11.0;;;10.0;;
22673;SDS011;11504;43.334;21.918;2023-04-03T22:21:05;11.0;;;10.0;;
22673;SDS011;11504;43.334;21.918;2023-04-03T22:25:42;11.0;;;10.0;;
22673;SDS011;11504;43.334;21.918;2023-04-03T22:30:30;10.0;;;9.0;;
22673;SDS011;11504;43.334;21.918;2023-04-03T22:35:07;10.0;;;9.0;;
22673;SDS011;11504;43.334;21.918;2023-04-03T22:39:44;8.0;;;8.0;;
22673;SDS011;11504;43.334;21.918;2023-04-03T22:44:20;8.0;;;8.0;;
22673;SDS011;11504;43.334;21.918;2023-04-03T22:48:57;9.0;;;9.0;;
22673;SDS011;11504;43.334;21.918;2023-04-03T22:53:33;9.0;;;9.0;;
22673;SDS011;11504;43.334;21.918;2023-04-03T22:58:12;9.0;;;9.0;;
22673;SDS011;11504;43.334;21.918;2023-04-03T23:02:48;10.0;;;10.0;;
22673;SDS011;11504;43.334;21.918;2023-04-03T23:07:25;10.0;;;10.0;;
22673;SDS011;11504;43.334;21.918;2023-04-03T23:12:01;10.0;;;10.0;;
22673;SDS011;11504;43.334;21.918;2023-04-03T23:16:38;10.0;;;10.0;;
22673;SDS011;11504;43.334;21.918;2023-04-03T23:21:15;9.0;;;9.0;;
22673;SDS011;11504;43.334;21.918;2023-04-03T23:25:53;9.0;;;9.0;;
22673;SDS011;11504;43.334;21.918;2023-04-03T23:30:37;8.0;;;8.0;;
22673;SDS011;11504;43.334;21.918;2023-04-03T23:35:14;8.0;;;8.0;;
22673;SDS011;11504;43.334;21.918;2023-04-03T23:39:51;7.0;;;7.0;;
22673;SDS011;11504;43.334;21.918;2023-04-03T23:44:28;7.0;;;7.0;;
22673;SDS011;11504;43.334;21.918;2023-04-03T23:49:05;6.0;;;6.0;;
22673;SDS011;11504;43.334;21.918;2023-04-03T23:53:42;6.0;;;6.0;;
22673;SDS011;11504;43.334;21.918;2023-04-03T23:58:18;6.0;;;6.0;;
